sensor_id;sensor_type;location;lat;lon;timestamp;pressure;altitude;pressure_sealevel;temperature;humidity
43450;BME280;29041;42.266;23.110;2023-02-03T00:00:57;96063.66;;;2.78;100.00
43450;BME280;29041;42.266;23.110;2023-02-03T00:03:46;96055.94;;;2.50;100.00
43450;BME280;29041;42.266;23.110;2023-02-03T00:06:41;96009.00;;;2.35;100.00
43450;BME280;29041;42.266;23.110;2023-02-03T00:09:30;96038.19;;;2.56;100.00
43450;BME280;29041;42.266;23.110;2023-02-03T00:12:22;96056.47;;;2.52;100.00
43450;BME280;29041;42.266;23.110;2023-02-03T00:15:09;96057.22;;;2.32;100.00
43450;BME280;29041;42.266;23.110;2023-02-03T00:17:56;96063.59;;;2.36;100.00
43450;BME280;29041;42.266;23.110;2023-02-03T00:20:45;96050.31;;;2.26;100.00
43450;BME280;29041;42.266;23.110;2023-02-03T00:23:33;96047.44;;;2.38;100.00
43450;BME280;29041;42.266;23.110;2023-02-03T00:26:20;96043.16;;;2.21;100.00
43450;BME280;29041;42.266;23.110;2023-02-03T00:29:09;96038.63;;;2.06;100.00
43450;BME280;29041;42.266;23.110;2023-02-03T00:31:56;96024.31;;;2.13;100.00
43450;BME280;29041;42.266;23.110;2023-02-03T00:34:44;96052.28;;;1.83;100.00
43450;BME280;29041;42.266;23.110;2023-02-03T00:37:33;96060.53;;;1.92;100.00
43450;BME280;29041;42.266;23.110;2023-02-03T00:40:21;96058.44;;;1.94;100.00
43450;BME280;29041;42.266;23.110;2023-02-03T00:43:09;96058.53;;;2.25;100.00
43450;BME280;29041;42.266;23.110;2023-02-03T00:45:58;96056.69;;;2.30;100.00
43450;BME280;29041;42.266;23.110;2023-02-03T00:48:45;96078.63;;;2.10;100.00
43450;BME280;29041;42.266;23.110;2023-02-03T00:51:33;96080.38;;;1.94;100.00
43450;BME280;29041;42.266;23.110;2023-02-03T00:54:22;96097.34;;;1.93;100.00
43450;BME280;29041;42.266;23.110;2023-02-03T00:57:09;96099.31;;;2.18;100.00
43450;BME280;29041;42.266;23.110;2023-02-03T00:59:56;96081.16;;;1.84;100.00
43450;BME280;29041;42.266;23.110;2023-02-03T01:02:43;96071.09;;;1.81;100.00
43450;BME280;29041;42.266;23.110;2023-02-03T01:05:30;96077.72;;;1.89;100.00
43450;BME280;29041;42.266;23.110;2023-02-03T01:08:17;96085.84;;;1.67;100.00
43450;BME280;29041;42.266;23.110;2023-02-03T01:11:08;96094.50;;;1.57;100.00
43450;BME280;29041;42.266;23.110;2023-02-03T01:13:55;96098.00;;;1.68;100.00
43450;BME280;29041;42.266;23.110;2023-02-03T01:16:44;96104.75;;;1.91;100.00
43450;BME280;29041;42.266;23.110;2023-02-03T01:19:31;96103.72;;;1.92;100.00
43450;BME280;29041;42.266;23.110;2023-02-03T01:22:19;96104.00;;;1.96;100.00
43450;BME280;29041;42.266;23.110;2023-02-03T01:25:07;96106.91;;;1.51;100.00
43450;BME280;29041;42.266;23.110;2023-02-03T01:27:55;96113.28;;;2.03;100.00
43450;BME280;29041;42.266;23.110;2023-02-03T01:30:42;96126.03;;;2.17;100.00
43450;BME280;29041;42.266;23.110;2023-02-03T01:33:30;96126.69;;;2.45;100.00
43450;BME280;29041;42.266;23.110;2023-02-03T01:36:17;96150.63;;;2.76;100.00
43450;BME280;29041;42.266;23.110;2023-02-03T01:39:05;96161.56;;;2.16;100.00
43450;BME280;29041;42.266;23.110;2023-02-03T01:41:53;96165.63;;;2.39;100.00
43450;BME280;29041;42.266;23.110;2023-02-03T01:44:45;96153.47;;;2.53;100.00
43450;BME280;29041;42.266;23.110;2023-02-03T01:47:35;96153.53;;;1.57;100.00
43450;BME280;29041;42.266;23.110;2023-02-03T01:50:28;96160.81;;;1.40;100.00
43450;BME280;29041;42.266;23.110;2023-02-03T01:53:17;96151.50;;;1.32;100.00
43450;BME280;29041;42.266;23.110;2023-02-03T01:56:05;96161.13;;;1.16;100.00
43450;BME280;29041;42.266;23.110;2023-02-03T01:58:52;96157.75;;;1.21;100.00
43450;BME280;29041;42.266;23.110;2023-02-03T02:01:41;96169.31;;;1.15;100.00
43450;BME280;29041;42.266;23.110;2023-02-03T02:04:33;96167.72;;;1.14;100.00
43450;BME280;29041;42.266;23.110;2023-02-03T02:07:23;96174.22;;;1.01;100.00
43450;BME280;29041;42.266;23.110;2023-02-03T02:10:11;96171.63;;;1.33;100.00
43450;BME280;29041;42.266;23.110;2023-02-03T02:12:59;96175.09;;;1.77;100.00
43450;BME280;29041;42.266;23.110;2023-02-03T02:15:53;96168.69;;;2.15;100.00
43450;BME280;29041;42.266;23.110;2023-02-03T02:19:20;96178.78;;;1.76;100.00
43450;BME280;29041;42.266;23.110;2023-02-03T02:22:19;96188.56;;;1.75;100.00
43450;BME280;29041;42.266;23.110;2023-02-03T02:25:26;96209.31;;;1.51;100.00
43450;BME280;29041;42.266;23.110;2023-02-03T02:28:38;96209.94;;;1.63;100.00
43450;BME280;29041;42.266;23.110;2023-02-03T02:31:48;96221.19;;;1.81;100.00
43450;BME280;29041;42.266;23.110;2023-02-03T02:34:45;96218.41;;;1.65;100.00
43450;BME280;29041;42.266;23.110;2023-02-03T02:37:43;96216.22;;;1.57;100.00
43450;BME280;29041;42.266;23.110;2023-02-03T02:40:38;96198.94;;;1.82;100.00
43450;BME280;29041;42.266;23.110;2023-02-03T02:43:39;96205.41;;;2.01;100.00
43450;BME280;29041;42.266;23.110;2023-02-03T02:46:31;96220.22;;;1.92;100.00
43450;BME280;29041;42.266;23.110;2023-02-03T02:51:59;96216.72;;;2.29;100.00
43450;BME280;29041;42.266;23.110;2023-02-03T02:54:51;96219.38;;;2.29;100.00
43450;BME280;29041;42.266;23.110;2023-02-03T02:57:41;96230.00;;;2.34;100.00
43450;BME280;29041;42.266;23.110;2023-02-03T03:00:30;96230.53;;;2.36;100.00
43450;BME280;29041;42.266;23.110;2023-02-03T03:03:19;96233.44;;;2.35;100.00
43450;BME280;29041;42.266;23.110;2023-02-03T03:06:11;96245.78;;;2.19;100.00
43450;BME280;29041;42.266;23.110;2023-02-03T03:09:03;96235.19;;;2.14;100.00
43450;BME280;29041;42.266;23.110;2023-02-03T03:11:56;96237.19;;;2.44;100.00
43450;BME280;29041;42.266;23.110;2023-02-03T03:14:46;96251.28;;;2.55;100.00
43450;BME280;29041;42.266;23.110;2023-02-03T03:17:40;96244.59;;;2.42;100.00
43450;BME280;29041;42.266;23.110;2023-02-03T03:20:29;96245.50;;;2.10;100.00
43450;BME280;29041;42.266;23.110;2023-02-03T03:23:19;96230.34;;;1.68;100.00
43450;BME280;29041;42.266;23.110;2023-02-03T03:26:13;96237.00;;;1.70;100.00
43450;BME280;29041;42.266;23.110;2023-02-03T03:29:06;96245.06;;;1.86;100.00
43450;BME280;29041;42.266;23.110;2023-02-03T03:31:56;96246.31;;;2.16;100.00
43450;BME280;29041;42.266;23.110;2023-02-03T03:34:44;96257.19;;;1.82;100.00
43450;BME280;29041;42.266;23.110;2023-02-03T03:37:48;96240.91;;;1.35;100.00
43450;BME280;29041;42.266;23.110;2023-02-03T03:40:39;96237.75;;;1.33;100.00
43450;BME280;29041;42.266;23.110;2023-02-03T03:43:34;96249.41;;;1.37;100.00
43450;BME280;29041;42.266;23.110;2023-02-03T03:46:26;96232.09;;;1.24;100.00
43450;BME280;29041;42.266;23.110;2023-02-03T03:49:14;96238.53;;;1.34;100.00
43450;BME280;29041;42.266;23.110;2023-02-03T03:52:06;96252.63;;;1.12;100.00
43450;BME280;29041;42.266;23.110;2023-02-03T03:54:55;96237.94;;;1.26;100.00
43450;BME280;29041;42.266;23.110;2023-02-03T03:57:47;96245.88;;;0.99;100.00
43450;BME280;29041;42.266;23.110;2023-02-03T04:00:43;96236.94;;;1.05;100.00
43450;BME280;29041;42.266;23.110;2023-02-03T04:03:34;96242.13;;;0.95;100.00
43450;BME280;29041;42.266;23.110;2023-02-03T04:06:23;96228.84;;;1.45;100.00
43450;BME280;29041;42.266;23.110;2023-02-03T04:09:10;96231.19;;;1.41;100.00
43450;BME280;29041;42.266;23.110;2023-02-03T04:11:57;96239.28;;;1.62;100.00
43450;BME280;29041;42.266;23.110;2023-02-03T04:14:47;96245.16;;;1.64;100.00
43450;BME280;29041;42.266;23.110;2023-02-03T04:17:36;96242.38;;;1.21;100.00
43450;BME280;29041;42.266;23.110;2023-02-03T04:20:23;96243.66;;;1.46;100.00
43450;BME280;29041;42.266;23.110;2023-02-03T04:23:10;96243.25;;;1.59;100.00
43450;BME280;29041;42.266;23.110;2023-02-03T04:26:06;96240.13;;;2.05;100.00
43450;BME280;29041;42.266;23.110;2023-02-03T04:28:53;96256.31;;;2.09;100.00
43450;BME280;29041;42.266;23.110;2023-02-03T04:31:40;96258.69;;;1.40;100.00
43450;BME280;29041;42.266;23.110;2023-02-03T04:34:29;96245.72;;;1.38;99.29
43450;BME280;29041;42.266;23.110;2023-02-03T04:37:16;96267.09;;;1.64;97.88
43450;BME280;29041;42.266;23.110;2023-02-03T04:40:04;96270.84;;;2.01;99.82
43450;BME280;29041;42.266;23.110;2023-02-03T04:42:51;96264.75;;;2.00;100.00
43450;BME280;29041;42.266;23.110;2023-02-03T04:45:38;96278.91;;;1.79;100.00
43450;BME280;29041;42.266;23.110;2023-02-03T04:48:26;96263.72;;;1.69;100.00
43450;BME280;29041;42.266;23.110;2023-02-03T04:51:14;96277.63;;;1.86;100.00
43450;BME280;29041;42.266;23.110;2023-02-03T04:54:01;96296.69;;;2.21;100.00
43450;BME280;29041;42.266;23.110;2023-02-03T04:56:48;96296.66;;;1.83;100.00
43450;BME280;29041;42.266;23.110;2023-02-03T04:59:35;96299.84;;;1.85;100.00
43450;BME280;29041;42.266;23.110;2023-02-03T05:02:23;96272.59;;;1.85;100.00
43450;BME280;29041;42.266;23.110;2023-02-03T05:05:10;96304.44;;;1.95;100.00
43450;BME280;29041;42.266;23.110;2023-02-03T05:07:58;96291.53;;;2.04;100.00
43450;BME280;29041;42.266;23.110;2023-02-03T05:10:45;96297.13;;;2.08;100.00
43450;BME280;29041;42.266;23.110;2023-02-03T05:13:33;96306.88;;;2.02;100.00
43450;BME280;29041;42.266;23.110;2023-02-03T05:16:20;96320.47;;;1.83;100.00
43450;BME280;29041;42.266;23.110;2023-02-03T05:19:07;96314.94;;;1.52;100.00
43450;BME280;29041;42.266;23.110;2023-02-03T05:21:54;96322.53;;;1.76;100.00
43450;BME280;29041;42.266;23.110;2023-02-03T05:24:43;96320.78;;;1.87;100.00
43450;BME280;29041;42.266;23.110;2023-02-03T05:27:31;96324.91;;;1.45;100.00
43450;BME280;29041;42.266;23.110;2023-02-03T05:30:18;96321.06;;;1.58;100.00
43450;BME280;29041;42.266;23.110;2023-02-03T05:33:08;96330.22;;;1.45;100.00
43450;BME280;29041;42.266;23.110;2023-02-03T05:35:55;96331.59;;;1.53;100.00
43450;BME280;29041;42.266;23.110;2023-02-03T05:38:42;96336.13;;;1.30;100.00
43450;BME280;29041;42.266;23.110;2023-02-03T05:41:31;96331.13;;;1.34;100.00
43450;BME280;29041;42.266;23.110;2023-02-03T05:44:35;96341.03;;;1.43;100.00
43450;BME280;29041;42.266;23.110;2023-02-03T05:47:23;96337.75;;;1.58;100.00
43450;BME280;29041;42.266;23.110;2023-02-03T05:50:10;96332.59;;;1.47;100.00
43450;BME280;29041;42.266;23.110;2023-02-03T05:52:57;96341.63;;;1.51;100.00
43450;BME280;29041;42.266;23.110;2023-02-03T05:55:46;96325.28;;;1.59;100.00
43450;BME280;29041;42.266;23.110;2023-02-03T05:58:35;96331.47;;;1.42;100.00
43450;BME280;29041;42.266;23.110;2023-02-03T06:01:23;96351.72;;;1.54;100.00
43450;BME280;29041;42.266;23.110;2023-02-03T06:04:11;96345.16;;;1.62;99.50
43450;BME280;29041;42.266;23.110;2023-02-03T06:06:59;96345.03;;;1.73;99.68
43450;BME280;29041;42.266;23.110;2023-02-03T06:09:46;96355.72;;;1.56;99.13
43450;BME280;29041;42.266;23.110;2023-02-03T06:12:34;96358.94;;;1.36;100.00
43450;BME280;29041;42.266;23.110;2023-02-03T06:15:23;96357.88;;;1.60;99.60
43450;BME280;29041;42.266;23.110;2023-02-03T06:18:15;96358.88;;;1.31;99.97
43450;BME280;29041;42.266;23.110;2023-02-03T06:21:02;96361.63;;;0.97;100.00
43450;BME280;29041;42.266;23.110;2023-02-03T06:23:49;96371.31;;;1.08;100.00
43450;BME280;29041;42.266;23.110;2023-02-03T06:26:36;96373.03;;;1.20;99.77
43450;BME280;29041;42.266;23.110;2023-02-03T06:29:26;96379.81;;;1.10;98.56
43450;BME280;29041;42.266;23.110;2023-02-03T06:32:14;96389.34;;;1.34;97.71
43450;BME280;29041;42.266;23.110;2023-02-03T06:35:01;96379.09;;;1.42;97.30
43450;BME280;29041;42.266;23.110;2023-02-03T06:37:48;96387.22;;;1.58;96.48
43450;BME280;29041;42.266;23.110;2023-02-03T06:40:36;96397.47;;;1.77;95.99
43450;BME280;29041;42.266;23.110;2023-02-03T06:43:23;96398.56;;;1.81;95.70
43450;BME280;29041;42.266;23.110;2023-02-03T06:46:10;96410.16;;;1.74;96.06
43450;BME280;29041;42.266;23.110;2023-02-03T06:48:58;96407.66;;;1.90;95.28
43450;BME280;29041;42.266;23.110;2023-02-03T06:51:46;96411.66;;;1.93;94.63
43450;BME280;29041;42.266;23.110;2023-02-03T06:54:33;96400.00;;;2.21;93.85
43450;BME280;29041;42.266;23.110;2023-02-03T06:57:20;96401.94;;;2.31;94.49
43450;BME280;29041;42.266;23.110;2023-02-03T07:00:25;96407.03;;;2.75;92.57
43450;BME280;29041;42.266;23.110;2023-02-03T07:03:35;96373.66;;;2.42;91.57
43450;BME280;29041;42.266;23.110;2023-02-03T07:06:25;96410.00;;;2.46;90.23
43450;BME280;29041;42.266;23.110;2023-02-03T07:12:01;96392.00;;;2.91;90.06
43450;BME280;29041;42.266;23.110;2023-02-03T07:15:12;96402.44;;;2.60;92.10
43450;BME280;29041;42.266;23.110;2023-02-03T07:21:57;96408.56;;;2.33;91.49
43450;BME280;29041;42.266;23.110;2023-02-03T07:24:49;96405.63;;;2.30;91.34
43450;BME280;29041;42.266;23.110;2023-02-03T07:31:01;96404.72;;;2.14;89.83
43450;BME280;29041;42.266;23.110;2023-02-03T07:33:50;96373.97;;;2.13;88.90
43450;BME280;29041;42.266;23.110;2023-02-03T07:36:45;96428.50;;;2.74;87.70
43450;BME280;29041;42.266;23.110;2023-02-03T07:39:36;96407.44;;;2.57;89.53
43450;BME280;29041;42.266;23.110;2023-02-03T07:42:23;96403.00;;;2.67;88.15
43450;BME280;29041;42.266;23.110;2023-02-03T07:45:13;96393.72;;;2.32;87.90
43450;BME280;29041;42.266;23.110;2023-02-03T07:48:01;96431.00;;;2.53;88.38
43450;BME280;29041;42.266;23.110;2023-02-03T07:53:26;96428.69;;;2.62;88.90
43450;BME280;29041;42.266;23.110;2023-02-03T07:59:02;96438.41;;;2.89;88.15
43450;BME280;29041;42.266;23.110;2023-02-03T08:01:52;96435.91;;;2.72;89.89
43450;BME280;29041;42.266;23.110;2023-02-03T08:04:45;96434.47;;;2.59;92.07
43450;BME280;29041;42.266;23.110;2023-02-03T08:07:48;96438.75;;;3.03;89.95
43450;BME280;29041;42.266;23.110;2023-02-03T08:10:47;96422.78;;;2.92;90.70
43450;BME280;29041;42.266;23.110;2023-02-03T08:24:14;96418.50;;;2.16;86.44
43450;BME280;29041;42.266;23.110;2023-02-03T08:30:16;96422.88;;;3.08;83.20
43450;BME280;29041;42.266;23.110;2023-02-03T08:33:05;96457.13;;;3.73;83.50
43450;BME280;29041;42.266;23.110;2023-02-03T08:35:53;96468.41;;;3.37;81.79
43450;BME280;29041;42.266;23.110;2023-02-03T08:39:03;96467.22;;;3.17;82.78
43450;BME280;29041;42.266;23.110;2023-02-03T08:41:57;96448.28;;;2.98;80.25
43450;BME280;29041;42.266;23.110;2023-02-03T08:45:12;96453.16;;;3.17;81.35
43450;BME280;29041;42.266;23.110;2023-02-03T08:48:24;96428.56;;;4.16;78.43
43450;BME280;29041;42.266;23.110;2023-02-03T08:51:15;96427.63;;;5.45;72.66
43450;BME280;29041;42.266;23.110;2023-02-03T08:54:03;96438.13;;;4.89;73.06
43450;BME280;29041;42.266;23.110;2023-02-03T08:59:55;96434.69;;;4.42;75.20
43450;BME280;29041;42.266;23.110;2023-02-03T09:03:09;96425.25;;;5.93;71.04
43450;BME280;29041;42.266;23.110;2023-02-03T09:06:08;96446.72;;;6.92;69.15
43450;BME280;29041;42.266;23.110;2023-02-03T09:42:34;96455.44;;;4.56;69.19
43450;BME280;29041;42.266;23.110;2023-02-03T09:45:28;96449.31;;;4.71;69.52
43450;BME280;29041;42.266;23.110;2023-02-03T09:49:07;96443.47;;;4.43;69.71
43450;BME280;29041;42.266;23.110;2023-02-03T09:52:12;96482.31;;;4.75;68.99
43450;BME280;29041;42.266;23.110;2023-02-03T09:55:12;96484.97;;;4.80;70.30
43450;BME280;29041;42.266;23.110;2023-02-03T09:58:22;96455.16;;;4.88;68.85
43450;BME280;29041;42.266;23.110;2023-02-03T10:01:13;96449.59;;;4.80;69.71
43450;BME280;29041;42.266;23.110;2023-02-03T10:04:15;96482.31;;;4.75;69.39
43450;BME280;29041;42.266;23.110;2023-02-03T10:15:06;96417.25;;;5.43;68.14
43450;BME280;29041;42.266;23.110;2023-02-03T10:20:54;96426.28;;;5.37;68.62
43450;BME280;29041;42.266;23.110;2023-02-03T10:23:49;96445.28;;;5.85;65.39
43450;BME280;29041;42.266;23.110;2023-02-03T10:27:11;96407.78;;;6.22;64.65
43450;BME280;29041;42.266;23.110;2023-02-03T10:42:35;96423.69;;;7.25;59.87
43450;BME280;29041;42.266;23.110;2023-02-03T10:45:42;96376.72;;;6.07;62.34
43450;BME280;29041;42.266;23.110;2023-02-03T10:48:38;96375.53;;;5.13;64.14
43450;BME280;29041;42.266;23.110;2023-02-03T10:51:49;96392.78;;;5.31;63.54
43450;BME280;29041;42.266;23.110;2023-02-03T10:55:29;96410.59;;;5.91;64.13
43450;BME280;29041;42.266;23.110;2023-02-03T10:58:26;96413.63;;;5.74;63.65
43450;BME280;29041;42.266;23.110;2023-02-03T11:01:37;96416.59;;;6.57;62.76
43450;BME280;29041;42.266;23.110;2023-02-03T11:08:16;96390.34;;;6.00;63.80
43450;BME280;29041;42.266;23.110;2023-02-03T11:11:33;96404.16;;;6.07;63.34
43450;BME280;29041;42.266;23.110;2023-02-03T11:14:42;96406.34;;;5.90;63.63
43450;BME280;29041;42.266;23.110;2023-02-03T11:17:30;96409.50;;;5.97;63.67
43450;BME280;29041;42.266;23.110;2023-02-03T11:20:23;96412.38;;;6.11;64.93
43450;BME280;29041;42.266;23.110;2023-02-03T11:59:40;96330.25;;;8.35;49.06
43450;BME280;29041;42.266;23.110;2023-02-03T12:03:00;96336.63;;;8.86;46.60
43450;BME280;29041;42.266;23.110;2023-02-03T12:08:51;96338.53;;;8.19;46.54
43450;BME280;29041;42.266;23.110;2023-02-03T12:12:18;96282.22;;;8.44;43.88
43450;BME280;29041;42.266;23.110;2023-02-03T12:36:34;96306.28;;;8.91;40.38
43450;BME280;29041;42.266;23.110;2023-02-03T15:49:45;96245.19;;;4.06;54.12
43450;BME280;29041;42.266;23.110;2023-02-03T15:52:40;96258.47;;;3.49;59.05
43450;BME280;29041;42.266;23.110;2023-02-03T15:55:40;96223.06;;;2.87;64.28
43450;BME280;29041;42.266;23.110;2023-02-03T15:58:43;96257.56;;;3.02;63.07
43450;BME280;29041;42.266;23.110;2023-02-03T16:04:21;96222.59;;;2.42;66.88
43450;BME280;29041;42.266;23.110;2023-02-03T16:26:37;96229.78;;;2.46;66.22
43450;BME280;29041;42.266;23.110;2023-02-03T16:29:28;96217.84;;;1.96;63.31
43450;BME280;29041;42.266;23.110;2023-02-03T16:36:18;96203.09;;;1.67;65.76
43450;BME280;29041;42.266;23.110;2023-02-03T16:39:25;96187.81;;;1.42;66.36
43450;BME280;29041;42.266;23.110;2023-02-03T16:42:40;96194.34;;;1.34;65.34
43450;BME280;29041;42.266;23.110;2023-02-03T16:51:03;96166.66;;;1.09;66.34
43450;BME280;29041;42.266;23.110;2023-02-03T16:54:26;96215.31;;;1.41;68.75
43450;BME280;29041;42.266;23.110;2023-02-03T16:57:52;96175.16;;;1.17;69.52
43450;BME280;29041;42.266;23.110;2023-02-03T17:05:53;96179.44;;;1.93;65.38
43450;BME280;29041;42.266;23.110;2023-02-03T17:09:06;96169.63;;;1.51;65.60
43450;BME280;29041;42.266;23.110;2023-02-03T17:21:26;96154.28;;;0.88;68.37
43450;BME280;29041;42.266;23.110;2023-02-03T17:24:33;96145.59;;;0.92;69.93
43450;BME280;29041;42.266;23.110;2023-02-03T17:27:43;96151.94;;;0.64;71.81
43450;BME280;29041;42.266;23.110;2023-02-03T17:30:43;96135.72;;;0.55;72.34
43450;BME280;29041;42.266;23.110;2023-02-03T17:33:55;96164.56;;;1.12;74.97
43450;BME280;29041;42.266;23.110;2023-02-03T17:58:53;96121.88;;;1.73;70.32
43450;BME280;29041;42.266;23.110;2023-02-03T18:01:46;96089.03;;;1.26;70.11
43450;BME280;29041;42.266;23.110;2023-02-03T18:05:01;96129.34;;;0.51;73.13
43450;BME280;29041;42.266;23.110;2023-02-03T18:08:12;96107.28;;;0.40;68.28
43450;BME280;29041;42.266;23.110;2023-02-03T18:29:54;96083.97;;;0.59;71.21
43450;BME280;29041;42.266;23.110;2023-02-03T18:32:49;96089.75;;;0.29;73.65
43450;BME280;29041;42.266;23.110;2023-02-03T18:36:09;96094.78;;;0.30;75.42
43450;BME280;29041;42.266;23.110;2023-02-03T18:39:18;96071.31;;;0.34;75.68
43450;BME280;29041;42.266;23.110;2023-02-03T18:42:06;96109.75;;;0.47;78.95
43450;BME280;29041;42.266;23.110;2023-02-03T18:45:00;96110.75;;;0.19;79.20
43450;BME280;29041;42.266;23.110;2023-02-03T18:48:06;96094.03;;;0.35;79.02
43450;BME280;29041;42.266;23.110;2023-02-03T18:54:42;96120.94;;;-0.12;82.92
43450;BME280;29041;42.266;23.110;2023-02-03T18:57:54;96113.16;;;-0.02;79.60
43450;BME280;29041;42.266;23.110;2023-02-03T19:01:06;96111.53;;;0.19;79.90
43450;BME280;29041;42.266;23.110;2023-02-03T19:04:07;96110.56;;;0.53;78.51
43450;BME280;29041;42.266;23.110;2023-02-03T19:10:39;96109.72;;;0.20;80.92
43450;BME280;29041;42.266;23.110;2023-02-03T19:13:49;96109.69;;;-0.25;81.75
43450;BME280;29041;42.266;23.110;2023-02-03T19:29:58;96088.09;;;0.01;79.72
43450;BME280;29041;42.266;23.110;2023-02-03T19:32:46;96058.50;;;-0.02;79.46
43450;BME280;29041;42.266;23.110;2023-02-03T19:39:03;96055.50;;;-0.33;80.39
43450;BME280;29041;42.266;23.110;2023-02-03T19:42:07;96051.56;;;0.14;77.04
43450;BME280;29041;42.266;23.110;2023-02-03T19:45:15;96023.88;;;-0.50;78.66
43450;BME280;29041;42.266;23.110;2023-02-03T19:48:23;96026.88;;;-0.63;81.66
43450;BME280;29041;42.266;23.110;2023-02-03T19:51:42;96036.81;;;-0.70;82.26
43450;BME280;29041;42.266;23.110;2023-02-03T19:55:03;96022.84;;;-0.88;85.42
43450;BME280;29041;42.266;23.110;2023-02-03T19:58:15;96032.84;;;-0.51;84.05
43450;BME280;29041;42.266;23.110;2023-02-03T20:01:04;96019.75;;;-0.85;84.45
43450;BME280;29041;42.266;23.110;2023-02-03T20:04:15;96025.28;;;-0.64;84.43
43450;BME280;29041;42.266;23.110;2023-02-03T20:07:40;95981.19;;;-0.91;84.60
43450;BME280;29041;42.266;23.110;2023-02-03T20:14:47;95985.13;;;-0.71;83.91
43450;BME280;29041;42.266;23.110;2023-02-03T20:23:24;95977.03;;;-0.65;85.48
43450;BME280;29041;42.266;23.110;2023-02-03T20:26:12;95970.16;;;-0.21;81.16
43450;BME280;29041;42.266;23.110;2023-02-03T20:28:59;95970.44;;;-0.18;80.85
43450;BME280;29041;42.266;23.110;2023-02-03T20:31:46;95971.06;;;-0.10;79.54
43450;BME280;29041;42.266;23.110;2023-02-03T20:34:33;95962.72;;;0.30;77.48
43450;BME280;29041;42.266;23.110;2023-02-03T20:37:36;95961.00;;;0.46;75.25
43450;BME280;29041;42.266;23.110;2023-02-03T20:40:24;95972.56;;;0.40;75.71
43450;BME280;29041;42.266;23.110;2023-02-03T20:43:16;95975.47;;;0.71;74.01
43450;BME280;29041;42.266;23.110;2023-02-03T20:46:08;95983.13;;;-0.14;76.15
43450;BME280;29041;42.266;23.110;2023-02-03T20:48:56;95973.78;;;-0.27;76.33
43450;BME280;29041;42.266;23.110;2023-02-03T20:51:43;95970.84;;;-0.31;77.03
43450;BME280;29041;42.266;23.110;2023-02-03T20:54:30;95972.56;;;-0.64;77.28
43450;BME280;29041;42.266;23.110;2023-02-03T20:57:19;95949.81;;;-0.70;78.85
43450;BME280;29041;42.266;23.110;2023-02-03T21:00:13;95962.41;;;-0.72;78.76
43450;BME280;29041;42.266;23.110;2023-02-03T21:03:00;95956.41;;;-0.68;80.28
43450;BME280;29041;42.266;23.110;2023-02-03T21:06:18;95968.56;;;-0.44;78.74
43450;BME280;29041;42.266;23.110;2023-02-03T21:09:12;95959.97;;;0.20;76.82
43450;BME280;29041;42.266;23.110;2023-02-03T21:11:59;95948.00;;;0.07;75.41
43450;BME280;29041;42.266;23.110;2023-02-03T21:14:48;95953.72;;;-0.01;75.68
43450;BME280;29041;42.266;23.110;2023-02-03T21:17:37;95947.41;;;0.00;76.24
43450;BME280;29041;42.266;23.110;2023-02-03T21:20:26;95933.97;;;0.34;77.63
43450;BME280;29041;42.266;23.110;2023-02-03T21:23:14;95932.84;;;0.25;78.40
43450;BME280;29041;42.266;23.110;2023-02-03T21:26:13;95935.91;;;0.17;78.63
43450;BME280;29041;42.266;23.110;2023-02-03T21:29:01;95929.75;;;0.38;79.42
43450;BME280;29041;42.266;23.110;2023-02-03T21:31:51;95929.38;;;0.57;78.50
43450;BME280;29041;42.266;23.110;2023-02-03T21:34:41;95918.78;;;0.52;78.36
43450;BME280;29041;42.266;23.110;2023-02-03T21:37:37;95915.59;;;-0.15;78.43
43450;BME280;29041;42.266;23.110;2023-02-03T21:40:26;95913.84;;;-0.32;78.67
43450;BME280;29041;42.266;23.110;2023-02-03T21:43:15;95911.91;;;-0.42;81.21
43450;BME280;29041;42.266;23.110;2023-02-03T21:46:03;95922.31;;;-0.30;80.42
43450;BME280;29041;42.266;23.110;2023-02-03T21:48:53;95920.84;;;0.12;78.48
43450;BME280;29041;42.266;23.110;2023-02-03T21:51:40;95920.63;;;0.19;78.84
43450;BME280;29041;42.266;23.110;2023-02-03T21:54:31;95917.16;;;-0.14;79.37
43450;BME280;29041;42.266;23.110;2023-02-03T21:57:19;95923.09;;;-0.29;79.09
43450;BME280;29041;42.266;23.110;2023-02-03T22:00:34;95908.47;;;0.18;76.89
43450;BME280;29041;42.266;23.110;2023-02-03T22:03:28;95905.69;;;0.35;74.75
43450;BME280;29041;42.266;23.110;2023-02-03T22:06:22;95902.72;;;0.58;73.73
43450;BME280;29041;42.266;23.110;2023-02-03T22:09:10;95905.03;;;0.50;74.53
43450;BME280;29041;42.266;23.110;2023-02-03T22:11:59;95902.75;;;0.26;77.95
43450;BME280;29041;42.266;23.110;2023-02-03T22:14:46;95905.81;;;-0.42;80.06
43450;BME280;29041;42.266;23.110;2023-02-03T22:17:33;95898.19;;;-0.11;81.82
43450;BME280;29041;42.266;23.110;2023-02-03T22:20:20;95902.53;;;0.33;77.19
43450;BME280;29041;42.266;23.110;2023-02-03T22:23:09;95891.75;;;0.39;76.60
43450;BME280;29041;42.266;23.110;2023-02-03T22:25:56;95891.47;;;-0.24;79.45
43450;BME280;29041;42.266;23.110;2023-02-03T22:28:43;95893.69;;;-0.11;81.23
43450;BME280;29041;42.266;23.110;2023-02-03T22:31:31;95870.88;;;0.00;78.28
43450;BME280;29041;42.266;23.110;2023-02-03T22:34:18;95870.34;;;0.03;76.51
43450;BME280;29041;42.266;23.110;2023-02-03T22:37:06;95888.94;;;0.56;74.51
43450;BME280;29041;42.266;23.110;2023-02-03T22:39:55;95867.28;;;0.54;74.09
43450;BME280;29041;42.266;23.110;2023-02-03T22:42:43;95876.56;;;0.62;73.79
43450;BME280;29041;42.266;23.110;2023-02-03T22:45:30;95868.50;;;0.36;74.44
43450;BME280;29041;42.266;23.110;2023-02-03T22:48:17;95868.81;;;0.98;72.13
43450;BME280;29041;42.266;23.110;2023-02-03T22:51:04;95871.50;;;1.03;73.14
43450;BME280;29041;42.266;23.110;2023-02-03T22:53:52;95873.16;;;0.67;73.25
43450;BME280;29041;42.266;23.110;2023-02-03T22:56:40;95866.53;;;0.59;74.66
43450;BME280;29041;42.266;23.110;2023-02-03T22:59:27;95863.78;;;0.43;74.48
43450;BME280;29041;42.266;23.110;2023-02-03T23:02:14;95856.25;;;0.25;73.75